Time;durP1;ratioP1;P1;durP2;ratioP2;P2;SDS_P1;SDS_P2;PMS_P1;PMS_P2;Temp;Humidity;BMP_temperature;BMP_pressure;BME280_temperature;BME280_humidity;BME280_pressure;Samples;Min_cycle;Max_cycle;Signal;HPM_P1;HPM_P2
2023/08/15 00:00:16;;;;;;;43.13;8.60;;;;;;;;;;4999300;28;20426;-37
2023/08/15 00:02:43;;;;;;;33.45;8.75;;;;;;;;;;4997036;28;20085;-36
2023/08/15 00:05:10;;;;;;;33.25;8.10;;;;;;;;;;5004395;28;20128;-36
2023/08/15 00:07:37;;;;;;;37.28;8.30;;;;;;;;;;5003428;28;20033;-34
2023/08/15 00:10:05;;;;;;;28.73;7.40;;;;;;;;;;5003826;28;20037;-34
2023/08/15 00:12:32;;;;;;;28.25;7.38;;;;;;;;;;5001887;28;20025;-35
2023/08/15 00:14:59;;;;;;;38.33;8.32;;;;;;;;;;5004532;28;20041;-37
2023/08/15 00:17:26;;;;;;;32.83;7.95;;;;;;;;;;5004864;28;20041;-35
2023/08/15 00:19:53;;;;;;;36.88;7.82;;;;;;;;;;4997974;28;20026;-36
2023/08/15 00:22:20;;;;;;;45.83;7.68;;;;;;;;;;5001160;28;20026;-36
2023/08/15 00:24:47;;;;;;;40.33;7.95;;;;;;;;;;5008653;28;20030;-39
2023/08/15 00:27:14;;;;;;;39.78;8.55;;;;;;;;;;5003872;28;20051;-33
2023/08/15 00:29:41;;;;;;;36.42;8.20;;;;;;;;;;5009082;28;20029;-37
2023/08/15 00:32:08;;;;;;;35.58;7.85;;;;;;;;;;5003325;28;20462;-35
2023/08/15 00:34:35;;;;;;;43.47;7.88;;;;;;;;;;5002775;28;20030;-39
2023/08/15 00:37:02;;;;;;;32.67;6.93;;;;;;;;;;5006178;28;20033;-38
2023/08/15 00:39:29;;;;;;;36.88;7.63;;;;;;;;;;4999818;28;20527;-33
2023/08/15 00:41:56;;;;;;;35.25;7.07;;;;;;;;;;5002524;28;20030;-32
2023/08/15 00:44:23;;;;;;;33.13;7.22;;;;;;;;;;5009120;28;20161;-43
2023/08/15 00:46:50;;;;;;;35.75;6.72;;;;;;;;;;5013598;28;20080;-46
2023/08/15 00:49:18;;;;;;;37.25;8.27;;;;;;;;;;5013512;28;20652;-46
2023/08/15 00:51:47;;;;;;;32.72;7.22;;;;;;;;;;5013291;28;20040;-43
2023/08/15 00:54:14;;;;;;;35.97;7.32;;;;;;;;;;5013637;28;20481;-42
2023/08/15 00:56:41;;;;;;;37.65;7.75;;;;;;;;;;4995367;28;20120;-33
2023/08/15 00:59:09;;;;;;;39.42;7.45;;;;;;;;;;5013889;28;20034;-34
2023/08/15 01:01:36;;;;;;;31.17;6.97;;;;;;;;;;5012208;28;20030;-34
2023/08/15 01:04:03;;;;;;;30.65;7.40;;;;;;;;;;5001133;28;20022;-33
2023/08/15 01:06:30;;;;;;;27.77;6.72;;;;;;;;;;5013364;28;20528;-33
2023/08/15 01:08:58;;;;;;;33.55;7.15;;;;;;;;;;5013300;28;20105;-34
2023/08/15 01:11:27;;;;;;;31.23;7.00;;;;;;;;;;5012977;28;20041;-33
2023/08/15 01:14:02;;;;;;;29.05;7.43;;;;;;;;;;5012133;28;20044;-34
2023/08/15 01:16:33;;;;;;;33.13;6.72;;;;;;;;;;5012923;28;20466;-33
2023/08/15 01:19:06;;;;;;;36.63;7.45;;;;;;;;;;5013179;28;20030;-33
2023/08/15 01:21:35;;;;;;;37.05;7.90;;;;;;;;;;5012725;28;20068;-34
2023/08/15 01:24:02;;;;;;;31.13;7.32;;;;;;;;;;5002791;28;20085;-34
2023/08/15 01:26:29;;;;;;;29.88;7.38;;;;;;;;;;5008913;28;20048;-33
2023/08/15 01:28:56;;;;;;;38.88;8.00;;;;;;;;;;5005413;28;20030;-34
2023/08/15 01:31:34;;;;;;;41.65;8.27;;;;;;;;;;5001887;28;20042;-33
2023/08/15 01:34:21;;;;;;;40.20;7.82;;;;;;;;;;4994552;28;20455;-43
2023/08/15 01:37:13;;;;;;;38.05;7.68;;;;;;;;;;5090740;27;20502;-34
2023/08/15 01:39:42;;;;;;;36.63;7.55;;;;;;;;;;5089474;28;20118;-34
2023/08/15 01:42:11;;;;;;;28.80;7.32;;;;;;;;;;5087762;28;20028;-35
2023/08/15 01:44:38;;;;;;;34.22;8.20;;;;;;;;;;5088104;28;20032;-34
2023/08/15 01:47:06;;;;;;;35.65;7.38;;;;;;;;;;5087822;28;20081;-36
2023/08/15 01:49:33;;;;;;;29.80;6.68;;;;;;;;;;5087642;28;20397;-36
2023/08/15 01:52:00;;;;;;;27.92;7.30;;;;;;;;;;5087588;28;20544;-36
2023/08/15 01:54:27;;;;;;;26.80;6.97;;;;;;;;;;5087905;28;20024;-35
2023/08/15 01:56:54;;;;;;;21.75;6.57;;;;;;;;;;5085311;28;20394;-36
2023/08/15 01:59:21;;;;;;;34.13;6.70;;;;;;;;;;5087099;28;20428;-36
2023/08/15 02:01:48;;;;;;;31.80;6.22;;;;;;;;;;5085408;28;20035;-36
2023/08/15 02:04:15;;;;;;;29.83;6.93;;;;;;;;;;5086508;28;20043;-36
2023/08/15 02:06:42;;;;;;;27.13;7.15;;;;;;;;;;5087471;28;20383;-36
2023/08/15 02:09:09;;;;;;;21.88;6.22;;;;;;;;;;5086304;28;20432;-35
2023/08/15 02:11:36;;;;;;;25.42;6.03;;;;;;;;;;5085423;28;20036;-36
2023/08/15 02:14:03;;;;;;;28.65;6.13;;;;;;;;;;5087855;28;20021;-35
2023/08/15 02:16:30;;;;;;;27.35;6.55;;;;;;;;;;5087760;28;20066;-36
2023/08/15 02:18:57;;;;;;;25.75;5.68;;;;;;;;;;5087820;28;20119;-36
2023/08/15 02:21:24;;;;;;;21.95;6.13;;;;;;;;;;5087733;28;20150;-36
2023/08/15 02:23:51;;;;;;;20.42;5.53;;;;;;;;;;5087799;28;20802;-36
2023/08/15 02:26:18;;;;;;;21.27;5.65;;;;;;;;;;5087722;28;20051;-36
2023/08/15 02:28:45;;;;;;;24.05;6.50;;;;;;;;;;5087678;28;20036;-35
2023/08/15 02:31:12;;;;;;;28.95;6.28;;;;;;;;;;5088171;28;20760;-35
2023/08/15 02:33:39;;;;;;;22.10;5.72;;;;;;;;;;5088196;28;20017;-35
2023/08/15 02:36:07;;;;;;;26.25;5.85;;;;;;;;;;5087624;28;20501;-35
2023/08/15 02:38:34;;;;;;;24.30;5.47;;;;;;;;;;5088173;28;20025;-35
2023/08/15 02:41:01;;;;;;;20.98;5.45;;;;;;;;;;5087963;28;20367;-35
2023/08/15 02:43:28;;;;;;;23.05;6.22;;;;;;;;;;5088020;28;20024;-35
2023/08/15 02:45:55;;;;;;;22.15;5.13;;;;;;;;;;5087957;28;20024;-35
2023/08/15 02:48:22;;;;;;;21.25;5.63;;;;;;;;;;5074647;28;20131;-36
2023/08/15 02:50:49;;;;;;;27.38;5.63;;;;;;;;;;5074294;28;20389;-36
2023/08/15 02:53:16;;;;;;;14.88;5.18;;;;;;;;;;5074349;28;20474;-36
2023/08/15 02:55:43;;;;;;;15.35;4.90;;;;;;;;;;5074212;28;20120;-36
2023/08/15 02:58:10;;;;;;;18.17;5.35;;;;;;;;;;5074222;28;20056;-36
2023/08/15 03:00:38;;;;;;;19.17;4.90;;;;;;;;;;5074146;28;20024;-36
2023/08/15 03:03:05;;;;;;;23.98;5.38;;;;;;;;;;5074197;28;20385;-36
2023/08/15 03:05:32;;;;;;;21.15;5.57;;;;;;;;;;5074100;28;20031;-36
2023/08/15 03:07:59;;;;;;;17.85;4.90;;;;;;;;;;5073953;28;20028;-36
2023/08/15 03:10:26;;;;;;;19.73;4.95;;;;;;;;;;5074053;28;20421;-36
2023/08/15 03:12:53;;;;;;;23.20;5.38;;;;;;;;;;5073902;28;20116;-36
2023/08/15 03:15:20;;;;;;;14.18;5.05;;;;;;;;;;5073788;28;20028;-36
2023/08/15 03:17:47;;;;;;;15.77;4.70;;;;;;;;;;5072630;28;20097;-35
2023/08/15 03:20:14;;;;;;;18.48;5.18;;;;;;;;;;5073831;28;20024;-36
2023/08/15 03:22:43;;;;;;;18.65;4.97;;;;;;;;;;5073714;28;20100;-36
2023/08/15 03:25:10;;;;;;;19.17;5.10;;;;;;;;;;5073746;28;20036;-36
2023/08/15 03:27:37;;;;;;;14.98;4.95;;;;;;;;;;5072631;28;20032;-36
2023/08/15 03:30:05;;;;;;;19.85;5.25;;;;;;;;;;5073711;28;20249;-36
2023/08/15 03:32:41;;;;;;;17.98;5.18;;;;;;;;;;5071634;28;20044;-36
2023/08/15 03:35:08;;;;;;;16.27;5.10;;;;;;;;;;5073303;28;20048;-36
2023/08/15 03:37:35;;;;;;;14.00;4.85;;;;;;;;;;5073530;28;20390;-36
2023/08/15 03:40:03;;;;;;;14.52;4.60;;;;;;;;;;5073519;28;20025;-36
2023/08/15 03:42:30;;;;;;;15.55;4.38;;;;;;;;;;5073262;28;20555;-35
2023/08/15 03:44:57;;;;;;;13.98;4.50;;;;;;;;;;5072025;28;20410;-36
2023/08/15 03:47:24;;;;;;;16.77;4.47;;;;;;;;;;5073363;28;20029;-36
2023/08/15 03:49:51;;;;;;;18.30;4.55;;;;;;;;;;5073273;28;20024;-35
2023/08/15 03:52:19;;;;;;;13.90;4.43;;;;;;;;;;5073160;28;20559;-35
2023/08/15 03:54:46;;;;;;;16.90;4.18;;;;;;;;;;5073135;28;20032;-35
2023/08/15 03:57:13;;;;;;;19.80;4.43;;;;;;;;;;5073204;28;20039;-36
2023/08/15 03:59:40;;;;;;;12.95;4.32;;;;;;;;;;5072135;28;20390;-35
2023/08/15 04:02:07;;;;;;;18.75;4.53;;;;;;;;;;5072981;28;20525;-35
2023/08/15 04:04:34;;;;;;;15.82;4.10;;;;;;;;;;5073030;28;20017;-36
2023/08/15 04:07:01;;;;;;;16.80;4.82;;;;;;;;;;5072970;28;20025;-35
2023/08/15 04:09:28;;;;;;;15.50;4.93;;;;;;;;;;5072885;28;20024;-36
2023/08/15 04:11:55;;;;;;;13.50;3.95;;;;;;;;;;5072815;28;20752;-36
2023/08/15 04:14:22;;;;;;;15.80;4.60;;;;;;;;;;5072850;28;20029;-35
2023/08/15 04:16:49;;;;;;;11.38;3.70;;;;;;;;;;5072719;28;20095;-35
2023/08/15 04:19:16;;;;;;;16.13;4.35;;;;;;;;;;5072779;28;20434;-35
2023/08/15 04:21:43;;;;;;;13.02;4.40;;;;;;;;;;5072638;28;20103;-35
2023/08/15 04:24:10;;;;;;;17.80;4.50;;;;;;;;;;5072599;28;20355;-35
2023/08/15 04:26:37;;;;;;;13.15;3.80;;;;;;;;;;5072675;28;20195;-35
2023/08/15 04:29:04;;;;;;;16.17;4.07;;;;;;;;;;5072582;28;20052;-35
2023/08/15 04:31:32;;;;;;;14.43;4.05;;;;;;;;;;5072426;28;20490;-35
2023/08/15 04:33:59;;;;;;;12.80;4.15;;;;;;;;;;5072426;28;20028;-35
2023/08/15 04:36:26;;;;;;;16.98;4.07;;;;;;;;;;5070644;28;20055;-36
2023/08/15 04:38:52;;;;;;;19.05;4.28;;;;;;;;;;5072309;28;20078;-35
2023/08/15 04:41:19;;;;;;;13.98;4.53;;;;;;;;;;5072236;28;20367;-35
2023/08/15 04:43:46;;;;;;;15.32;3.80;;;;;;;;;;5072256;28;20029;-35
2023/08/15 04:46:13;;;;;;;18.08;4.43;;;;;;;;;;5072234;28;20066;-35
2023/08/15 04:48:40;;;;;;;16.17;4.43;;;;;;;;;;5072152;28;20048;-35
2023/08/15 04:51:07;;;;;;;12.85;4.10;;;;;;;;;;5072031;28;20044;-35
2023/08/15 04:53:34;;;;;;;12.38;4.00;;;;;;;;;;5072148;28;20086;-35
2023/08/15 04:56:01;;;;;;;13.00;4.50;;;;;;;;;;5072037;28;20509;-35
2023/08/15 04:58:28;;;;;;;12.85;4.32;;;;;;;;;;5072040;28;20082;-35
2023/08/15 05:00:55;;;;;;;13.98;3.88;;;;;;;;;;5071922;28;20048;-35
2023/08/15 05:03:22;;;;;;;14.80;4.03;;;;;;;;;;5071966;28;20033;-35
2023/08/15 05:05:49;;;;;;;12.68;3.55;;;;;;;;;;5071958;28;20029;-35
2023/08/15 05:08:16;;;;;;;12.70;3.85;;;;;;;;;;5071901;28;20454;-35
2023/08/15 05:10:43;;;;;;;11.98;4.05;;;;;;;;;;5071598;28;20502;-35
2023/08/15 05:13:10;;;;;;;12.93;3.72;;;;;;;;;;5071821;28;20032;-35
2023/08/15 05:15:36;;;;;;;12.30;3.72;;;;;;;;;;5071743;28;20521;-35
2023/08/15 05:18:03;;;;;;;12.13;3.97;;;;;;;;;;5071811;28;20024;-35
2023/08/15 05:20:32;;;;;;;13.07;3.80;;;;;;;;;;5071716;28;20024;-35
2023/08/15 05:22:59;;;;;;;12.70;3.58;;;;;;;;;;5071755;28;20055;-35
2023/08/15 05:25:26;;;;;;;11.65;3.85;;;;;;;;;;5071710;28;20025;-35
2023/08/15 05:27:53;;;;;;;11.32;3.58;;;;;;;;;;5071769;28;20031;-35
2023/08/15 05:30:19;;;;;;;11.32;3.88;;;;;;;;;;5071577;28;20023;-35
2023/08/15 05:32:46;;;;;;;13.93;3.85;;;;;;;;;;5071701;28;20538;-35
2023/08/15 05:35:13;;;;;;;10.82;3.53;;;;;;;;;;5071194;28;20056;-35
2023/08/15 05:37:40;;;;;;;12.05;3.33;;;;;;;;;;5071534;28;20032;-35
2023/08/15 05:40:08;;;;;;;11.07;3.63;;;;;;;;;;5071625;28;20028;-35
2023/08/15 05:42:35;;;;;;;11.65;3.22;;;;;;;;;;5071474;28;20090;-35
2023/08/15 05:45:02;;;;;;;12.93;3.63;;;;;;;;;;5071548;28;20056;-35
2023/08/15 05:47:29;;;;;;;14.63;3.88;;;;;;;;;;5071506;28;20594;-35
2023/08/15 05:49:56;;;;;;;11.05;3.28;;;;;;;;;;5071454;28;20059;-36
2023/08/15 05:52:23;;;;;;;11.30;3.28;;;;;;;;;;5071458;28;20021;-35
2023/08/15 05:54:50;;;;;;;9.38;2.88;;;;;;;;;;5071371;28;20032;-35
2023/08/15 05:57:17;;;;;;;10.93;3.40;;;;;;;;;;5071823;28;20021;-35
2023/08/15 05:59:44;;;;;;;11.23;3.55;;;;;;;;;;5071409;28;20040;-35
2023/08/15 06:02:11;;;;;;;12.25;3.47;;;;;;;;;;5069596;28;20058;-36
2023/08/15 06:04:38;;;;;;;9.57;3.55;;;;;;;;;;5071377;28;20043;-36
2023/08/15 06:07:05;;;;;;;12.52;3.47;;;;;;;;;;5071297;28;20103;-36
2023/08/15 06:09:32;;;;;;;11.35;3.40;;;;;;;;;;5071351;28;20562;-36
2023/08/15 06:12:00;;;;;;;9.93;3.47;;;;;;;;;;5071248;28;20025;-36
2023/08/15 06:14:27;;;;;;;11.18;3.75;;;;;;;;;;5071261;28;20382;-36
2023/08/15 06:16:53;;;;;;;9.20;3.15;;;;;;;;;;5071173;28;20382;-35
2023/08/15 06:19:20;;;;;;;12.18;3.33;;;;;;;;;;5071191;28;20036;-35
2023/08/15 06:21:47;;;;;;;8.20;2.88;;;;;;;;;;5071382;28;20405;-35
2023/08/15 06:24:14;;;;;;;10.75;3.03;;;;;;;;;;5074963;28;20020;-35
2023/08/15 06:26:41;;;;;;;10.68;3.05;;;;;;;;;;5074874;28;20032;-35
2023/08/15 06:29:09;;;;;;;7.93;3.30;;;;;;;;;;5074909;28;20086;-35
2023/08/15 06:31:36;;;;;;;7.63;3.15;;;;;;;;;;5074765;28;20020;-35
2023/08/15 06:34:04;;;;;;;10.38;3.35;;;;;;;;;;5073453;28;20480;-35
2023/08/15 06:36:31;;;;;;;10.32;3.55;;;;;;;;;;5073764;28;20118;-35
2023/08/15 06:38:58;;;;;;;8.05;2.80;;;;;;;;;;5074684;28;20035;-35
2023/08/15 06:41:25;;;;;;;10.73;3.13;;;;;;;;;;5074593;28;20025;-35
2023/08/15 06:43:52;;;;;;;12.07;3.10;;;;;;;;;;5074632;28;20027;-35
2023/08/15 06:46:19;;;;;;;8.82;3.08;;;;;;;;;;5074587;28;20078;-35
2023/08/15 06:48:46;;;;;;;13.40;3.10;;;;;;;;;;5074499;28;20027;-35
2023/08/15 06:51:13;;;;;;;16.85;3.50;;;;;;;;;;5074379;28;20500;-35
2023/08/15 06:53:44;;;;;;;8.38;2.92;;;;;;;;;;5074315;28;20077;-35
2023/08/15 06:56:11;;;;;;;9.73;2.97;;;;;;;;;;5074197;28;20040;-35
2023/08/15 06:58:38;;;;;;;9.10;3.08;;;;;;;;;;5073204;28;20423;-35
2023/08/15 07:01:06;;;;;;;16.17;3.22;;;;;;;;;;5074128;28;20036;-35
2023/08/15 07:03:33;;;;;;;10.07;2.97;;;;;;;;;;5074440;28;20059;-35
2023/08/15 07:06:00;;;;;;;7.72;2.90;;;;;;;;;;5074129;28;20036;-36
2023/08/15 07:08:27;;;;;;;7.40;2.83;;;;;;;;;;5072856;28;20185;-35
2023/08/15 07:10:55;;;;;;;11.70;3.53;;;;;;;;;;5074056;28;20040;-35
2023/08/15 07:13:22;;;;;;;8.90;3.08;;;;;;;;;;5074098;28;20504;-35
2023/08/15 07:15:56;;;;;;;7.88;2.65;;;;;;;;;;5073928;28;20028;-35
2023/08/15 07:18:23;;;;;;;11.23;3.15;;;;;;;;;;5074052;28;20029;-35
2023/08/15 07:20:51;;;;;;;8.63;2.67;;;;;;;;;;5073832;28;20032;-35
2023/08/15 07:23:20;;;;;;;12.07;3.22;;;;;;;;;;5073944;28;20032;-35
2023/08/15 07:25:47;;;;;;;8.93;3.00;;;;;;;;;;5073783;28;20442;-35
2023/08/15 07:28:14;;;;;;;8.77;2.78;;;;;;;;;;5073835;28;20483;-35
2023/08/15 07:30:43;;;;;;;8.15;3.08;;;;;;;;;;5073697;28;20105;-35
2023/08/15 07:33:13;;;;;;;6.60;2.50;;;;;;;;;;5073570;28;20035;-35
2023/08/15 07:35:40;;;;;;;7.35;2.80;;;;;;;;;;5073213;28;20059;-35
2023/08/15 07:38:07;;;;;;;7.90;2.92;;;;;;;;;;5073496;28;20074;-35
2023/08/15 07:40:34;;;;;;;7.80;2.75;;;;;;;;;;5073439;28;20493;-36
2023/08/15 07:43:01;;;;;;;9.48;2.70;;;;;;;;;;5073510;28;20032;-35
2023/08/15 07:45:28;;;;;;;9.27;2.97;;;;;;;;;;5073418;28;20024;-35
2023/08/15 07:47:58;;;;;;;6.07;2.63;;;;;;;;;;5073405;28;20020;-36
2023/08/15 07:50:26;;;;;;;7.93;2.58;;;;;;;;;;5073173;28;20098;-35
2023/08/15 07:52:54;;;;;;;8.45;2.30;;;;;;;;;;5073348;28;20025;-35
2023/08/15 07:55:21;;;;;;;8.18;2.95;;;;;;;;;;5073248;28;20091;-35
2023/08/15 07:57:48;;;;;;;6.53;2.60;;;;;;;;;;5073121;28;20037;-33
2023/08/15 08:00:16;;;;;;;8.85;2.90;;;;;;;;;;5073147;28;20548;-33
2023/08/15 08:02:46;;;;;;;7.43;2.63;;;;;;;;;;5073008;28;20490;-33
2023/08/15 08:05:15;;;;;;;9.65;2.83;;;;;;;;;;5073033;28;20040;-33
2023/08/15 08:07:43;;;;;;;7.15;2.60;;;;;;;;;;5073042;28;20037;-33
2023/08/15 08:10:10;;;;;;;6.75;2.75;;;;;;;;;;5072867;28;20073;-33
2023/08/15 08:12:37;;;;;;;8.85;2.80;;;;;;;;;;5072970;28;20870;-33
2023/08/15 08:15:05;;;;;;;7.57;2.72;;;;;;;;;;5072793;28;20107;-35
2023/08/15 08:17:32;;;;;;;6.53;2.90;;;;;;;;;;5072827;28;20021;-36
2023/08/15 08:19:59;;;;;;;5.63;2.38;;;;;;;;;;5072723;28;20572;-36
2023/08/15 08:22:26;;;;;;;8.23;2.50;;;;;;;;;;5072625;28;20064;-36
2023/08/15 08:24:53;;;;;;;5.28;2.40;;;;;;;;;;5072693;28;20033;-36
2023/08/15 08:27:20;;;;;;;9.38;3.20;;;;;;;;;;5072572;28;20068;-36
2023/08/15 08:29:47;;;;;;;6.57;2.42;;;;;;;;;;5072799;28;20041;-36
2023/08/15 08:32:14;;;;;;;9.35;2.75;;;;;;;;;;5072446;28;20031;-36
2023/08/15 08:34:41;;;;;;;8.25;2.45;;;;;;;;;;5072450;28;20020;-36
2023/08/15 08:37:08;;;;;;;6.38;2.53;;;;;;;;;;5072150;28;20037;-36
2023/08/15 08:39:35;;;;;;;10.23;2.75;;;;;;;;;;5072383;28;20025;-36
2023/08/15 08:42:04;;;;;;;7.90;2.70;;;;;;;;;;5072312;28;20094;-36
2023/08/15 08:44:32;;;;;;;6.50;2.55;;;;;;;;;;5071846;28;20028;-36
2023/08/15 08:47:00;;;;;;;7.57;2.40;;;;;;;;;;5072242;28;20059;-36
2023/08/15 08:49:27;;;;;;;7.38;2.40;;;;;;;;;;5072184;28;20033;-36
2023/08/15 08:51:56;;;;;;;7.32;2.88;;;;;;;;;;5072060;28;20040;-36
2023/08/15 08:54:24;;;;;;;8.65;2.58;;;;;;;;;;5072106;28;20033;-36
2023/08/15 08:56:52;;;;;;;9.07;2.55;;;;;;;;;;5072086;28;20043;-36
2023/08/15 08:59:21;;;;;;;7.28;2.58;;;;;;;;;;5072058;28;20093;-36
2023/08/15 09:01:49;;;;;;;9.88;2.17;;;;;;;;;;5072018;28;20024;-36
2023/08/15 09:04:19;;;;;;;7.22;2.72;;;;;;;;;;5071916;28;20037;-36
2023/08/15 09:06:46;;;;;;;7.50;2.40;;;;;;;;;;5072039;28;20043;-36
2023/08/15 09:09:13;;;;;;;7.80;2.75;;;;;;;;;;5071886;28;20471;-36
2023/08/15 09:11:40;;;;;;;7.80;2.53;;;;;;;;;;5071817;28;20099;-36
2023/08/15 09:14:07;;;;;;;7.57;2.47;;;;;;;;;;5071915;28;20436;-36
2023/08/15 09:16:35;;;;;;;5.95;2.58;;;;;;;;;;5071663;28;20032;-36
2023/08/15 09:19:02;;;;;;;6.40;2.83;;;;;;;;;;5071832;28;20028;-36
2023/08/15 09:21:30;;;;;;;8.02;2.72;;;;;;;;;;5071758;28;20048;-36
2023/08/15 09:24:00;;;;;;;10.90;2.80;;;;;;;;;;5071813;28;20027;-36
2023/08/15 09:26:27;;;;;;;10.55;2.78;;;;;;;;;;5071470;28;20467;-36
2023/08/15 09:28:54;;;;;;;7.45;2.42;;;;;;;;;;5071172;28;20034;-36
2023/08/15 09:31:21;;;;;;;5.75;2.17;;;;;;;;;;5071547;28;20383;-36
2023/08/15 09:33:48;;;;;;;5.57;2.38;;;;;;;;;;5071654;28;20022;-36
2023/08/15 09:36:15;;;;;;;7.45;2.40;;;;;;;;;;5070572;28;20048;-36
2023/08/15 09:38:42;;;;;;;5.75;2.17;;;;;;;;;;5071377;28;20078;-37
2023/08/15 09:41:13;;;;;;;10.50;2.67;;;;;;;;;;5071316;28;20068;-36
2023/08/15 09:43:50;;;;;;;10.32;2.40;;;;;;;;;;5071488;28;20172;-37
2023/08/15 09:46:21;;;;;;;18.48;3.33;;;;;;;;;;5070947;28;20017;-37
2023/08/15 09:48:49;;;;;;;7.03;2.38;;;;;;;;;;5071410;28;20476;-37
2023/08/15 09:51:16;;;;;;;14.63;2.70;;;;;;;;;;5071427;28;20059;-37
2023/08/15 09:53:44;;;;;;;18.83;2.97;;;;;;;;;;5071572;28;20035;-37
2023/08/15 09:56:11;;;;;;;12.63;2.95;;;;;;;;;;5071423;28;20036;-37
2023/08/15 09:58:39;;;;;;;7.47;2.40;;;;;;;;;;5074985;28;20082;-37
2023/08/15 10:01:08;;;;;;;12.35;3.03;;;;;;;;;;5075424;28;20103;-37
2023/08/15 10:03:41;;;;;;;18.80;3.15;;;;;;;;;;5075400;28;20025;-37
2023/08/15 10:06:08;;;;;;;21.70;3.78;;;;;;;;;;5074356;28;20025;-37
2023/08/15 10:08:39;;;;;;;14.25;3.40;;;;;;;;;;5075364;28;20756;-37
2023/08/15 10:11:08;;;;;;;16.95;3.05;;;;;;;;;;5074359;28;20028;-38
2023/08/15 10:13:37;;;;;;;16.38;2.92;;;;;;;;;;5074814;28;20044;-37
2023/08/15 10:16:05;;;;;;;13.25;3.42;;;;;;;;;;5075065;28;20135;-37
2023/08/15 10:18:32;;;;;;;15.45;3.50;;;;;;;;;;5075069;28;20440;-37
2023/08/15 10:20:59;;;;;;;14.10;3.08;;;;;;;;;;5074907;28;20398;-37
2023/08/15 10:23:33;;;;;;;12.32;2.65;;;;;;;;;;5075080;28;20482;-37
2023/08/15 10:26:01;;;;;;;15.95;3.25;;;;;;;;;;5074956;28;20033;-37
2023/08/15 10:28:28;;;;;;;13.07;3.05;;;;;;;;;;5074205;28;20024;-37
2023/08/15 10:30:56;;;;;;;17.00;2.90;;;;;;;;;;5074061;28;20162;-37
2023/08/15 10:33:25;;;;;;;17.48;3.08;;;;;;;;;;5074121;28;20058;-37
2023/08/15 10:35:52;;;;;;;12.05;2.70;;;;;;;;;;5073773;28;20412;-37
2023/08/15 10:38:23;;;;;;;13.85;2.90;;;;;;;;;;5073997;28;20047;-37
2023/08/15 10:40:52;;;;;;;22.95;3.47;;;;;;;;;;5074010;28;20493;-37
2023/08/15 10:43:19;;;;;;;19.63;3.35;;;;;;;;;;5074670;28;20174;-37
2023/08/15 10:45:49;;;;;;;14.70;3.05;;;;;;;;;;5074503;28;20445;-37
2023/08/15 10:48:16;;;;;;;15.50;3.28;;;;;;;;;;5074565;28;20028;-37
2023/08/15 10:50:45;;;;;;;17.13;3.28;;;;;;;;;;5074333;28;20028;-37
2023/08/15 10:53:12;;;;;;;19.63;3.17;;;;;;;;;;5074544;28;20472;-37
2023/08/15 10:55:39;;;;;;;12.65;2.90;;;;;;;;;;5074349;28;20033;-37
2023/08/15 10:58:08;;;;;;;18.73;3.17;;;;;;;;;;5074434;28;20024;-37
2023/08/15 11:00:36;;;;;;;20.40;3.33;;;;;;;;;;5074280;28;20381;-37
2023/08/15 11:03:03;;;;;;;17.75;3.28;;;;;;;;;;5073823;28;20032;-37
2023/08/15 11:05:30;;;;;;;17.33;3.78;;;;;;;;;;5073997;28;20044;-37
2023/08/15 11:08:17;;;;;;;12.25;3.33;;;;;;;;;;5073032;28;20028;-37
2023/08/15 11:10:44;;;;;;;43.15;4.78;;;;;;;;;;5072459;28;20048;-37
2023/08/15 11:13:11;;;;;;;35.13;4.28;;;;;;;;;;5073678;28;20020;-37
2023/08/15 11:15:39;;;;;;;64.10;6.18;;;;;;;;;;5073404;28;20028;-40
2023/08/15 11:18:06;;;;;;;119.13;9.80;;;;;;;;;;5072980;28;20379;-44
2023/08/15 11:20:33;;;;;;;87.40;7.22;;;;;;;;;;5073517;28;20060;-40
2023/08/15 11:23:01;;;;;;;952.67;51.85;;;;;;;;;;5073503;28;20108;-38
2023/08/15 11:25:28;;;;;;;398.63;33.45;;;;;;;;;;5073080;28;20032;-37
2023/08/15 11:27:55;;;;;;;717.22;56.97;;;;;;;;;;5073577;28;20064;-36
2023/08/15 11:30:22;;;;;;;418.60;31.52;;;;;;;;;;5073397;28;20023;-37
2023/08/15 11:32:49;;;;;;;328.25;21.65;;;;;;;;;;5073515;28;20025;-36
2023/08/15 11:35:17;;;;;;;898.97;87.50;;;;;;;;;;5073116;28;20076;-37
2023/08/15 11:37:44;;;;;;;759.80;65.13;;;;;;;;;;5073230;28;20036;-37
2023/08/15 11:40:11;;;;;;;632.92;51.50;;;;;;;;;;5073232;28;20025;-37
2023/08/15 11:42:39;;;;;;;424.80;37.65;;;;;;;;;;5073275;28;20028;-37
2023/08/15 11:45:09;;;;;;;395.35;31.52;;;;;;;;;;5073285;28;20410;-36
2023/08/15 11:47:37;;;;;;;251.70;24.48;;;;;;;;;;5073236;28;20371;-40
2023/08/15 11:50:10;;;;;;;232.02;24.98;;;;;;;;;;5073016;28;20400;-35
2023/08/15 11:52:43;;;;;;;256.70;28.02;;;;;;;;;;5073097;28;20031;-35
2023/08/15 11:55:11;;;;;;;308.13;28.73;;;;;;;;;;5072984;28;20095;-35
2023/08/15 11:57:38;;;;;;;243.32;25.70;;;;;;;;;;5073004;28;20513;-35
2023/08/15 12:00:06;;;;;;;285.65;26.92;;;;;;;;;;5072965;28;20023;-35
2023/08/15 12:02:42;;;;;;;222.32;25.10;;;;;;;;;;5072672;28;20033;-35
2023/08/15 12:05:13;;;;;;;210.73;24.55;;;;;;;;;;5072940;28;20478;-35
2023/08/15 12:07:40;;;;;;;215.20;24.27;;;;;;;;;;5072866;28;20025;-35
2023/08/15 12:10:08;;;;;;;197.55;23.67;;;;;;;;;;5072729;28;20024;-35
2023/08/15 12:12:42;;;;;;;167.02;22.15;;;;;;;;;;5072621;28;20440;-35
2023/08/15 12:15:10;;;;;;;189.23;23.45;;;;;;;;;;5072578;28;20028;-35
2023/08/15 12:17:38;;;;;;;170.02;22.33;;;;;;;;;;5071262;28;20119;-35
2023/08/15 12:20:06;;;;;;;192.32;23.50;;;;;;;;;;5071600;28;20048;-35
2023/08/15 12:22:33;;;;;;;182.80;22.23;;;;;;;;;;5072497;28;20042;-35
2023/08/15 12:25:01;;;;;;;217.95;24.77;;;;;;;;;;5071022;28;20431;-35
2023/08/15 12:27:28;;;;;;;257.20;34.42;;;;;;;;;;5072394;28;20028;-35
2023/08/15 12:29:55;;;;;;;371.02;45.70;;;;;;;;;;5072176;28;20041;-35
2023/08/15 12:32:22;;;;;;;359.77;44.58;;;;;;;;;;5072285;28;20029;-35
2023/08/15 12:34:49;;;;;;;363.73;47.67;;;;;;;;;;5072143;28;20479;-36
2023/08/15 12:37:16;;;;;;;326.42;46.08;;;;;;;;;;5072122;28;20025;-35
2023/08/15 12:39:43;;;;;;;359.55;47.08;;;;;;;;;;5072093;28;20028;-36
2023/08/15 12:42:10;;;;;;;338.80;45.30;;;;;;;;;;5072169;28;20055;-35
2023/08/15 12:44:37;;;;;;;346.80;47.58;;;;;;;;;;5072043;28;20020;-35
2023/08/15 12:47:04;;;;;;;326.23;44.40;;;;;;;;;;5072081;28;20056;-35
2023/08/15 12:49:31;;;;;;;344.40;48.20;;;;;;;;;;5071943;28;20028;-35
2023/08/15 12:51:58;;;;;;;325.80;46.13;;;;;;;;;;5071873;28;20055;-35
2023/08/15 12:54:25;;;;;;;332.80;46.17;;;;;;;;;;5071843;28;20542;-35
2023/08/15 12:56:52;;;;;;;310.90;44.53;;;;;;;;;;5071776;28;20028;-35
2023/08/15 12:59:19;;;;;;;313.10;44.58;;;;;;;;;;5071827;28;20028;-35
2023/08/15 13:01:46;;;;;;;301.25;43.67;;;;;;;;;;5071707;28;20028;-35
2023/08/15 13:04:13;;;;;;;274.67;40.28;;;;;;;;;;5071686;28;20025;-35
2023/08/15 13:06:41;;;;;;;276.85;41.28;;;;;;;;;;5071743;28;20041;-35
2023/08/15 13:09:08;;;;;;;300.05;43.25;;;;;;;;;;5071680;28;20048;-35
2023/08/15 13:11:36;;;;;;;283.05;40.08;;;;;;;;;;5071591;28;20020;-35
2023/08/15 13:14:06;;;;;;;268.60;41.63;;;;;;;;;;5071647;28;20032;-35
2023/08/15 13:16:33;;;;;;;273.77;42.22;;;;;;;;;;5071510;28;20386;-35
2023/08/15 13:19:01;;;;;;;255.77;40.30;;;;;;;;;;5071643;28;20024;-35
2023/08/15 13:21:28;;;;;;;264.73;39.95;;;;;;;;;;5071454;28;20484;-35
2023/08/15 13:23:55;;;;;;;250.98;39.08;;;;;;;;;;5071551;28;20033;-35
2023/08/15 13:26:22;;;;;;;247.00;39.47;;;;;;;;;;5071531;28;20025;-35
2023/08/15 13:28:49;;;;;;;225.43;37.55;;;;;;;;;;5071577;28;20031;-35
2023/08/15 13:31:17;;;;;;;237.63;36.58;;;;;;;;;;5071263;28;20078;-35
2023/08/15 13:33:45;;;;;;;234.45;36.55;;;;;;;;;;5071443;28;20036;-35
2023/08/15 13:36:12;;;;;;;227.10;35.30;;;;;;;;;;5070989;28;20559;-35
2023/08/15 13:38:41;;;;;;;187.45;31.30;;;;;;;;;;5071277;28;20028;-35
2023/08/15 13:41:09;;;;;;;198.50;28.08;;;;;;;;;;5071401;28;20033;-36
2023/08/15 13:43:36;;;;;;;189.27;28.85;;;;;;;;;;5071300;28;20037;-35
2023/08/15 13:46:07;;;;;;;183.00;27.15;;;;;;;;;;5071294;28;20120;-35
2023/08/15 13:48:39;;;;;;;162.90;27.27;;;;;;;;;;5071307;28;20020;-35
2023/08/15 13:51:25;;;;;;;161.55;26.10;;;;;;;;;;5071148;28;20093;-35
2023/08/15 13:53:52;;;;;;;167.38;24.55;;;;;;;;;;5071144;28;20064;-35
2023/08/15 13:56:19;;;;;;;117.97;16.90;;;;;;;;;;5071093;28;20124;-35
2023/08/15 13:58:46;;;;;;;108.97;17.20;;;;;;;;;;5071133;28;20028;-35
2023/08/15 14:01:13;;;;;;;107.28;16.67;;;;;;;;;;5071013;28;20044;-35
2023/08/15 14:03:40;;;;;;;120.15;18.70;;;;;;;;;;5070064;28;20467;-36
2023/08/15 14:06:07;;;;;;;143.55;22.27;;;;;;;;;;5070324;28;20059;-36
2023/08/15 14:08:34;;;;;;;145.95;23.63;;;;;;;;;;5070429;28;20027;-35
2023/08/15 14:11:03;;;;;;;127.18;24.50;;;;;;;;;;5069312;28;20102;-35
2023/08/15 14:13:30;;;;;;;134.15;24.83;;;;;;;;;;5070947;28;20040;-35
2023/08/15 14:15:57;;;;;;;345.52;29.83;;;;;;;;;;5070777;28;20081;-35
2023/08/15 14:18:24;;;;;;;163.45;20.48;;;;;;;;;;5070197;28;20033;-35
2023/08/15 14:20:51;;;;;;;136.98;21.60;;;;;;;;;;5069494;28;20021;-35
2023/08/15 14:23:18;;;;;;;136.50;20.08;;;;;;;;;;5070327;28;20382;-35
2023/08/15 14:25:45;;;;;;;132.75;18.83;;;;;;;;;;5061447;28;20435;-35
2023/08/15 14:28:12;;;;;;;130.50;19.90;;;;;;;;;;5050744;28;20063;-35